EDW2AS LSZH-GVAC
Flight info
| Callsign | EDW2AS |
|---|---|
| Flight time | N/A |
| Altitude | 33000 |
| Route | VEBIT T50 ROTOS Z669 ULMES DCT VADAR DCT NINTU DCT MEBAK DCT REPSI DCT LERGA DCT MINSO DCT NARAK DCT AGN DCT PIPOR L866 PPN N976 DGO DCT NEA DCT ZANKO DCT RIDAV DCT ADINO DCT ELVAR DCT BAROK/N0455F350 UN873 SAMAR DCT YUSME DCT LIMAL/N0459F360 N873 IPERA/N0420F240 B623 DIMKI DIMKI1S |
| Aircraft | A320/M-SDE3FGHIRWY/LB1 |
Departure
| Time | N/A |
|---|---|
| Airport | Zürich Airport (LSZH) |
Arrival
| Time | 2026-04-30 21:46 |
|---|---|
| Airport | Amílcar Cabral International Airport (GVAC) |
| Time | Latitude | Longitude | Altitude | Speed | Heading |
|---|---|---|---|---|---|
| 2026-04-30 15:14 | 47.46106 | 8.55152 | 1401 ft | 0 kts | 65° |
| 2026-04-30 17:39 | 40.13076 | -6.25080 | 33073 ft | 431 kts | 219° |
| 2026-04-30 17:42 | 39.90037 | -6.50030 | 33071 ft | 431 kts | 218° |
| 2026-04-30 17:43 | 39.78467 | -6.62438 | 33062 ft | 431 kts | 218° |
| 2026-04-30 17:44 | 39.64575 | -6.77283 | 33061 ft | 431 kts | 218° |
| 2026-04-30 17:47 | 39.43716 | -6.99415 | 33070 ft | 430 kts | 218° |
| 2026-04-30 17:48 | 39.27530 | -7.16479 | 33059 ft | 430 kts | 218° |
| 2026-04-30 17:50 | 39.08275 | -7.34719 | 33061 ft | 429 kts | 214° |
| 2026-04-30 17:52 | 38.93646 | -7.47939 | 33060 ft | 428 kts | 214° |
| 2026-04-30 17:53 | 38.81450 | -7.58878 | 33184 ft | 429 kts | 215° |
| 2026-04-30 17:54 | 38.71679 | -7.67630 | 34051 ft | 427 kts | 214° |
| 2026-04-30 17:55 | 38.61943 | -7.76310 | 34804 ft | 425 kts | 215° |
| 2026-04-30 17:56 | 38.52256 | -7.84916 | 35070 ft | 424 kts | 215° |
| 2026-04-30 17:58 | 38.37700 | -7.97807 | 35072 ft | 424 kts | 215° |
| 2026-04-30 18:00 | 38.19134 | -8.14151 | 35077 ft | 423 kts | 214° |
| 2026-04-30 18:01 | 38.07010 | -8.24755 | 35084 ft | 423 kts | 214° |
| 2026-04-30 18:02 | 37.92483 | -8.37406 | 35104 ft | 423 kts | 214° |
| 2026-04-30 18:04 | 37.77954 | -8.50020 | 35102 ft | 422 kts | 215° |
| 2026-04-30 18:06 | 37.58559 | -8.66759 | 35096 ft | 422 kts | 216° |
| 2026-04-30 18:08 | 37.41475 | -8.81389 | 35085 ft | 427 kts | 217° |
| 2026-04-30 18:10 | 37.21730 | -8.98220 | 35097 ft | 431 kts | 218° |
| 2026-04-30 18:11 | 37.04274 | -9.12999 | 35083 ft | 436 kts | 221° |
| 2026-04-30 18:13 | 36.91642 | -9.23642 | 35098 ft | 439 kts | 220° |
| 2026-04-30 18:14 | 36.78987 | -9.34262 | 35097 ft | 440 kts | 220° |
| 2026-04-30 18:15 | 36.63747 | -9.47006 | 35106 ft | 440 kts | 220° |
| 2026-04-30 18:16 | 36.53610 | -9.55437 | 35127 ft | 437 kts | 220° |
| 2026-04-30 18:17 | 36.48557 | -9.59632 | 35134 ft | 436 kts | 220° |
| 2026-04-30 18:18 | 36.40989 | -9.65904 | 35128 ft | 435 kts | 220° |
| 2026-04-30 18:18 | 36.35946 | -9.70075 | 35132 ft | 435 kts | 220° |
| 2026-04-30 18:19 | 36.30909 | -9.74234 | 35114 ft | 435 kts | 220° |
| 2026-04-30 18:19 | 36.25883 | -9.78382 | 35119 ft | 434 kts | 220° |
| 2026-04-30 18:20 | 36.20875 | -9.82501 | 35122 ft | 434 kts | 220° |
| 2026-04-30 18:20 | 36.15848 | -9.86629 | 35129 ft | 433 kts | 219° |
| 2026-04-30 18:21 | 36.10828 | -9.90749 | 35138 ft | 432 kts | 219° |
| 2026-04-30 18:21 | 36.05819 | -9.94851 | 35121 ft | 431 kts | 220° |
| 2026-04-30 18:22 | 36.00810 | -9.98946 | 35128 ft | 431 kts | 219° |
| 2026-04-30 18:22 | 35.93384 | -10.05171 | 35128 ft | 428 kts | 223° |
| 2026-04-30 18:23 | 35.88675 | -10.09621 | 35131 ft | 426 kts | 224° |
| 2026-04-30 18:23 | 35.84019 | -10.14086 | 35133 ft | 427 kts | 223° |
| 2026-04-30 18:24 | 35.76914 | -10.20698 | 35108 ft | 427 kts | 223° |
| 2026-04-30 18:25 | 35.72162 | -10.25073 | 35136 ft | 426 kts | 223° |
| 2026-04-30 18:25 | 35.65060 | -10.31628 | 35142 ft | 424 kts | 223° |
| 2026-04-30 18:26 | 35.57987 | -10.38136 | 35136 ft | 424 kts | 223° |
| 2026-04-30 18:27 | 35.50917 | -10.44635 | 35134 ft | 424 kts | 223° |
| 2026-04-30 18:28 | 35.43809 | -10.51149 | 35131 ft | 423 kts | 223° |
| 2026-04-30 18:28 | 35.36755 | -10.57612 | 35109 ft | 423 kts | 223° |
| 2026-04-30 18:29 | 35.27318 | -10.66209 | 35109 ft | 422 kts | 223° |
| 2026-04-30 18:30 | 35.17892 | -10.74777 | 35121 ft | 422 kts | 223° |
| 2026-04-30 18:31 | 35.10833 | -10.81179 | 35126 ft | 421 kts | 223° |
| 2026-04-30 18:32 | 35.03767 | -10.87570 | 35121 ft | 421 kts | 223° |
| 2026-04-30 18:33 | 34.96696 | -10.93952 | 35112 ft | 421 kts | 223° |
| 2026-04-30 18:33 | 34.89671 | -11.00296 | 35138 ft | 420 kts | 223° |
| 2026-04-30 18:34 | 34.82640 | -11.06629 | 35146 ft | 419 kts | 223° |
| 2026-04-30 18:35 | 34.77950 | -11.10833 | 35144 ft | 418 kts | 223° |
| 2026-04-30 18:35 | 34.73287 | -11.15005 | 35119 ft | 418 kts | 223° |
| 2026-04-30 18:36 | 34.66256 | -11.21298 | 35127 ft | 418 kts | 223° |
| 2026-04-30 18:37 | 34.59230 | -11.27582 | 35130 ft | 417 kts | 224° |
| 2026-04-30 18:37 | 34.54557 | -11.31778 | 35134 ft | 417 kts | 224° |
| 2026-04-30 18:38 | 34.49891 | -11.35966 | 35144 ft | 416 kts | 224° |
| 2026-04-30 18:38 | 34.45253 | -11.40126 | 35124 ft | 415 kts | 224° |
| 2026-04-30 18:39 | 34.40599 | -11.44283 | 35131 ft | 415 kts | 224° |
| 2026-04-30 18:39 | 34.35942 | -11.48428 | 35134 ft | 415 kts | 224° |
| 2026-04-30 18:40 | 34.31329 | -11.52541 | 35136 ft | 414 kts | 224° |
| 2026-04-30 18:40 | 34.26706 | -11.56661 | 35135 ft | 414 kts | 224° |
| 2026-04-30 18:41 | 34.22058 | -11.60793 | 35138 ft | 414 kts | 224° |
| 2026-04-30 18:41 | 34.17391 | -11.64933 | 35110 ft | 414 kts | 224° |
| 2026-04-30 18:42 | 34.12749 | -11.69042 | 35116 ft | 414 kts | 224° |
| 2026-04-30 18:42 | 34.05775 | -11.75214 | 35128 ft | 414 kts | 224° |
| 2026-04-30 18:45 | 33.80204 | -11.97733 | 35124 ft | 415 kts | 224° |
| 2026-04-30 18:46 | 33.75540 | -12.01826 | 35128 ft | 415 kts | 224° |
| 2026-04-30 18:46 | 33.70857 | -12.05912 | 35126 ft | 415 kts | 224° |
| 2026-04-30 18:47 | 33.66216 | -12.09961 | 35129 ft | 415 kts | 224° |
| 2026-04-30 18:47 | 33.61552 | -12.14040 | 35128 ft | 415 kts | 224° |
| 2026-04-30 18:48 | 33.56881 | -12.18117 | 35121 ft | 415 kts | 224° |
| 2026-04-30 18:48 | 33.52195 | -12.22184 | 35133 ft | 416 kts | 224° |
| 2026-04-30 18:49 | 33.47510 | -12.26255 | 35130 ft | 416 kts | 224° |
| 2026-04-30 18:49 | 33.43589 | -12.29666 | 35128 ft | 416 kts | 224° |
| 2026-04-30 18:50 | 33.38919 | -12.33715 | 35130 ft | 417 kts | 224° |
| 2026-04-30 18:50 | 33.34218 | -12.37786 | 35135 ft | 417 kts | 224° |
| 2026-04-30 18:51 | 33.29516 | -12.41848 | 35114 ft | 417 kts | 223° |
| 2026-04-30 18:51 | 33.24801 | -12.45917 | 35117 ft | 418 kts | 223° |
| 2026-04-30 18:52 | 33.20089 | -12.49983 | 35119 ft | 418 kts | 223° |
| 2026-04-30 18:52 | 33.15387 | -12.54039 | 35126 ft | 418 kts | 223° |
| 2026-04-30 18:53 | 33.10677 | -12.58094 | 35133 ft | 418 kts | 223° |
| 2026-04-30 18:53 | 33.05926 | -12.62163 | 35134 ft | 418 kts | 223° |
| 2026-04-30 18:54 | 33.01227 | -12.66187 | 35112 ft | 419 kts | 223° |
| 2026-04-30 18:54 | 32.96499 | -12.70241 | 35120 ft | 419 kts | 223° |
| 2026-04-30 18:55 | 32.91766 | -12.74291 | 35129 ft | 419 kts | 223° |
| 2026-04-30 18:55 | 32.84652 | -12.80352 | 35144 ft | 419 kts | 223° |
| 2026-04-30 18:56 | 32.77558 | -12.86363 | 35153 ft | 418 kts | 223° |
| 2026-04-30 18:57 | 32.70452 | -12.92395 | 35150 ft | 417 kts | 223° |
| 2026-04-30 18:57 | 32.65721 | -12.96390 | 35145 ft | 417 kts | 223° |
| 2026-04-30 18:58 | 32.58628 | -13.02388 | 35148 ft | 417 kts | 223° |
| 2026-04-30 18:59 | 32.51528 | -13.08355 | 35146 ft | 417 kts | 223° |
| 2026-04-30 19:00 | 32.42062 | -13.16299 | 35127 ft | 417 kts | 222° |
| 2026-04-30 19:01 | 32.32609 | -13.24221 | 35149 ft | 416 kts | 222° |
| 2026-04-30 19:02 | 32.25551 | -13.30125 | 35145 ft | 416 kts | 222° |
| 2026-04-30 19:03 | 32.16124 | -13.38007 | 35114 ft | 416 kts | 222° |
| 2026-04-30 19:04 | 32.06633 | -13.45893 | 35125 ft | 418 kts | 222° |
| 2026-04-30 19:05 | 31.97107 | -13.53803 | 35140 ft | 418 kts | 221° |
| 2026-04-30 19:06 | 31.87598 | -13.61656 | 35117 ft | 418 kts | 221° |
| 2026-04-30 19:06 | 31.80446 | -13.67561 | 35125 ft | 418 kts | 221° |
| 2026-04-30 19:07 | 31.73288 | -13.73458 | 35135 ft | 419 kts | 221° |
| 2026-04-30 19:08 | 31.63767 | -13.81292 | 35138 ft | 419 kts | 221° |
| 2026-04-30 19:09 | 31.56595 | -13.87165 | 35121 ft | 419 kts | 221° |
| 2026-04-30 19:09 | 31.51812 | -13.91089 | 35131 ft | 419 kts | 221° |
| 2026-04-30 19:10 | 31.42259 | -13.98905 | 35139 ft | 419 kts | 221° |
| 2026-04-30 19:11 | 31.35087 | -14.04749 | 35140 ft | 419 kts | 221° |
| 2026-04-30 19:12 | 31.30312 | -14.08644 | 35141 ft | 418 kts | 221° |
| 2026-04-30 19:12 | 31.25571 | -14.12526 | 35123 ft | 418 kts | 221° |
| 2026-04-30 19:13 | 31.16039 | -14.20329 | 35135 ft | 419 kts | 221° |
| 2026-04-30 19:14 | 31.11252 | -14.24236 | 35129 ft | 419 kts | 221° |
| 2026-04-30 19:14 | 31.06480 | -14.28128 | 35134 ft | 419 kts | 221° |
| 2026-04-30 19:15 | 31.01696 | -14.32018 | 35139 ft | 419 kts | 221° |
| 2026-04-30 19:15 | 30.94527 | -14.37861 | 35121 ft | 419 kts | 221° |
| 2026-04-30 19:16 | 30.89691 | -14.41683 | 35126 ft | 424 kts | 216° |
| 2026-04-30 19:17 | 30.81729 | -14.46319 | 35131 ft | 427 kts | 213° |
| 2026-04-30 19:17 | 30.73749 | -14.50934 | 35132 ft | 427 kts | 213° |
| 2026-04-30 19:18 | 30.65792 | -14.55529 | 35124 ft | 427 kts | 213° |
| 2026-04-30 19:19 | 30.60481 | -14.58590 | 35126 ft | 428 kts | 213° |
| 2026-04-30 19:19 | 30.52467 | -14.63190 | 35136 ft | 427 kts | 213° |
| 2026-04-30 19:20 | 30.47138 | -14.66249 | 35131 ft | 427 kts | 213° |
| 2026-04-30 19:21 | 30.39150 | -14.70836 | 35111 ft | 427 kts | 213° |
| 2026-04-30 19:22 | 30.28476 | -14.76942 | 35125 ft | 428 kts | 213° |
| 2026-04-30 19:23 | 30.12479 | -14.86052 | 35129 ft | 428 kts | 213° |
| 2026-04-30 19:24 | 30.04512 | -14.90583 | 35121 ft | 428 kts | 213° |
| 2026-04-30 19:25 | 29.91124 | -14.98185 | 35124 ft | 429 kts | 212° |
| 2026-04-30 19:26 | 29.80446 | -15.04229 | 35129 ft | 429 kts | 212° |
| 2026-04-30 19:27 | 29.72419 | -15.08768 | 35133 ft | 429 kts | 212° |
| 2026-04-30 19:28 | 29.64379 | -15.13305 | 35131 ft | 429 kts | 212° |
| 2026-04-30 19:29 | 29.53661 | -15.19329 | 35138 ft | 429 kts | 212° |
| 2026-04-30 19:30 | 29.42930 | -15.25346 | 35123 ft | 429 kts | 212° |
| 2026-04-30 19:31 | 29.32211 | -15.31356 | 35129 ft | 429 kts | 212° |
| 2026-04-30 19:31 | 29.24206 | -15.35823 | 35132 ft | 429 kts | 212° |
| 2026-04-30 19:32 | 29.18839 | -15.38818 | 35114 ft | 429 kts | 212° |
| 2026-04-30 19:32 | 29.13472 | -15.41811 | 35124 ft | 429 kts | 212° |
| 2026-04-30 19:33 | 29.08113 | -15.44793 | 35125 ft | 429 kts | 212° |
| 2026-04-30 19:33 | 29.02758 | -15.47777 | 35130 ft | 429 kts | 212° |
| 2026-04-30 19:34 | 28.97388 | -15.50760 | 35123 ft | 429 kts | 212° |
| 2026-04-30 19:35 | 28.89341 | -15.55213 | 35111 ft | 429 kts | 212° |
| 2026-04-30 19:35 | 28.83974 | -15.58181 | 35113 ft | 429 kts | 212° |
| 2026-04-30 19:36 | 28.78605 | -15.61153 | 35117 ft | 429 kts | 212° |
| 2026-04-30 19:36 | 28.71456 | -15.65104 | 35113 ft | 429 kts | 212° |
| 2026-04-30 19:37 | 28.66089 | -15.68067 | 35114 ft | 429 kts | 212° |
| 2026-04-30 19:37 | 28.60715 | -15.71032 | 35098 ft | 429 kts | 212° |
| 2026-04-30 19:38 | 28.55343 | -15.73985 | 35108 ft | 429 kts | 212° |
| 2026-04-30 19:38 | 28.49972 | -15.76931 | 35112 ft | 429 kts | 212° |
| 2026-04-30 19:39 | 28.44586 | -15.79886 | 35116 ft | 429 kts | 212° |
| 2026-04-30 19:39 | 28.39214 | -15.82834 | 35119 ft | 429 kts | 212° |
| 2026-04-30 19:40 | 28.33840 | -15.85783 | 35120 ft | 429 kts | 212° |
| 2026-04-30 19:40 | 28.28494 | -15.88715 | 35108 ft | 429 kts | 211° |
| 2026-04-30 19:41 | 28.23119 | -15.91648 | 35114 ft | 429 kts | 211° |
| 2026-04-30 19:41 | 28.17739 | -15.94584 | 35118 ft | 429 kts | 211° |
| 2026-04-30 19:42 | 28.12359 | -15.97515 | 35118 ft | 429 kts | 211° |
| 2026-04-30 19:42 | 28.06977 | -16.00448 | 35113 ft | 429 kts | 211° |
| 2026-04-30 19:43 | 28.01589 | -16.03379 | 35115 ft | 429 kts | 211° |
| 2026-04-30 19:44 | 27.93506 | -16.07773 | 35109 ft | 429 kts | 211° |
| 2026-04-30 19:44 | 27.88169 | -16.10667 | 35117 ft | 429 kts | 211° |
| 2026-04-30 19:45 | 27.82737 | -16.13612 | 35120 ft | 429 kts | 211° |
| 2026-04-30 19:45 | 27.77369 | -16.16519 | 35118 ft | 429 kts | 211° |
| 2026-04-30 19:46 | 27.72006 | -16.19412 | 35115 ft | 429 kts | 211° |
| 2026-04-30 19:46 | 27.66624 | -16.22316 | 35090 ft | 429 kts | 211° |
| 2026-04-30 19:47 | 27.61241 | -16.25224 | 35099 ft | 428 kts | 211° |
| 2026-04-30 19:47 | 27.55858 | -16.28128 | 35107 ft | 428 kts | 211° |
| 2026-04-30 19:48 | 27.50479 | -16.31025 | 35110 ft | 428 kts | 211° |
| 2026-04-30 19:48 | 27.45124 | -16.33908 | 35111 ft | 428 kts | 211° |
| 2026-04-30 19:49 | 27.39741 | -16.36806 | 35115 ft | 428 kts | 211° |
| 2026-04-30 19:49 | 27.31678 | -16.41128 | 35103 ft | 428 kts | 211° |
| 2026-04-30 19:50 | 27.26302 | -16.44004 | 35108 ft | 428 kts | 211° |
| 2026-04-30 19:50 | 27.20928 | -16.46880 | 35109 ft | 428 kts | 211° |
| 2026-04-30 19:51 | 27.15550 | -16.49755 | 35109 ft | 428 kts | 211° |
| 2026-04-30 19:51 | 27.10177 | -16.52626 | 35123 ft | 428 kts | 211° |
| 2026-04-30 19:52 | 27.04798 | -16.55495 | 35108 ft | 428 kts | 211° |
| 2026-04-30 19:52 | 26.99419 | -16.58357 | 35110 ft | 428 kts | 211° |
| 2026-04-30 19:53 | 26.94077 | -16.61199 | 35116 ft | 428 kts | 211° |
| 2026-04-30 19:53 | 26.88660 | -16.64076 | 35110 ft | 428 kts | 211° |
| 2026-04-30 19:54 | 26.83312 | -16.66914 | 35118 ft | 428 kts | 211° |
| 2026-04-30 19:54 | 26.77939 | -16.69769 | 35112 ft | 428 kts | 211° |
| 2026-04-30 19:55 | 26.72562 | -16.72626 | 35112 ft | 428 kts | 211° |
| 2026-04-30 19:55 | 26.67184 | -16.75477 | 35112 ft | 428 kts | 211° |
| 2026-04-30 19:56 | 26.61804 | -16.78317 | 35112 ft | 427 kts | 211° |
| 2026-04-30 19:56 | 26.56424 | -16.81152 | 35116 ft | 427 kts | 211° |
| 2026-04-30 19:57 | 26.51047 | -16.83986 | 35170 ft | 428 kts | 211° |
| 2026-04-30 19:57 | 26.48353 | -16.85406 | 35380 ft | 428 kts | 211° |
| 2026-04-30 19:57 | 26.45661 | -16.86828 | 35572 ft | 427 kts | 211° |
| 2026-04-30 19:58 | 26.43000 | -16.88234 | 35748 ft | 427 kts | 211° |
| 2026-04-30 19:58 | 26.40288 | -16.89663 | 35955 ft | 427 kts | 211° |
| 2026-04-30 19:58 | 26.37603 | -16.91077 | 36087 ft | 427 kts | 211° |
| 2026-04-30 19:58 | 26.34915 | -16.92489 | 36124 ft | 426 kts | 211° |
| 2026-04-30 19:59 | 26.29544 | -16.95302 | 36125 ft | 426 kts | 211° |
| 2026-04-30 20:00 | 26.21544 | -16.99505 | 36126 ft | 426 kts | 211° |
| 2026-04-30 20:00 | 26.16193 | -17.02324 | 36128 ft | 425 kts | 211° |
| 2026-04-30 20:01 | 26.08156 | -17.06530 | 36111 ft | 426 kts | 211° |
| 2026-04-30 20:01 | 26.02805 | -17.09326 | 36109 ft | 426 kts | 211° |
| 2026-04-30 20:02 | 25.94750 | -17.13539 | 36112 ft | 426 kts | 211° |
| 2026-04-30 20:03 | 25.86705 | -17.17729 | 36115 ft | 426 kts | 211° |
| 2026-04-30 20:03 | 25.81339 | -17.20526 | 36089 ft | 426 kts | 211° |
| 2026-04-30 20:04 | 25.75975 | -17.23317 | 36094 ft | 426 kts | 211° |
| 2026-04-30 20:05 | 25.67961 | -17.27483 | 36103 ft | 426 kts | 211° |
| 2026-04-30 20:05 | 25.59891 | -17.31670 | 36110 ft | 426 kts | 211° |
| 2026-04-30 20:06 | 25.54507 | -17.34457 | 36109 ft | 426 kts | 211° |
| 2026-04-30 20:06 | 25.49133 | -17.37237 | 36086 ft | 426 kts | 212° |
| 2026-04-30 20:07 | 25.43768 | -17.40015 | 36091 ft | 427 kts | 212° |
| 2026-04-30 20:08 | 25.35707 | -17.44176 | 36107 ft | 426 kts | 212° |
| 2026-04-30 20:08 | 25.30322 | -17.46961 | 36108 ft | 426 kts | 212° |
| 2026-04-30 20:09 | 25.24983 | -17.49710 | 36122 ft | 426 kts | 212° |
| 2026-04-30 20:09 | 25.16928 | -17.53849 | 36099 ft | 426 kts | 212° |
| 2026-04-30 20:10 | 25.08863 | -17.57995 | 36100 ft | 426 kts | 212° |
| 2026-04-30 20:11 | 25.00804 | -17.62134 | 36104 ft | 425 kts | 213° |
| 2026-04-30 20:11 | 24.95798 | -17.65442 | 36104 ft | 419 kts | 219° |
| 2026-04-30 20:12 | 24.88393 | -17.70578 | 36102 ft | 419 kts | 219° |
| 2026-04-30 20:13 | 24.83443 | -17.73996 | 36091 ft | 420 kts | 219° |
| 2026-04-30 20:13 | 24.78501 | -17.77393 | 36093 ft | 419 kts | 219° |
| 2026-04-30 20:14 | 24.73580 | -17.80778 | 36104 ft | 419 kts | 219° |
| 2026-04-30 20:14 | 24.68633 | -17.84176 | 36108 ft | 418 kts | 219° |
| 2026-04-30 20:15 | 24.63696 | -17.87563 | 36109 ft | 418 kts | 219° |
| 2026-04-30 20:15 | 24.58758 | -17.90953 | 36112 ft | 418 kts | 219° |
| 2026-04-30 20:16 | 24.53827 | -17.94339 | 36088 ft | 418 kts | 219° |
| 2026-04-30 20:16 | 24.48896 | -17.97716 | 36097 ft | 418 kts | 219° |
| 2026-04-30 20:17 | 24.43961 | -18.01091 | 36105 ft | 417 kts | 219° |
| 2026-04-30 20:17 | 24.39034 | -18.04460 | 36104 ft | 417 kts | 219° |
| 2026-04-30 20:18 | 24.34094 | -18.07832 | 36106 ft | 417 kts | 219° |
| 2026-04-30 20:18 | 24.29165 | -18.11194 | 36104 ft | 417 kts | 219° |
| 2026-04-30 20:19 | 24.24242 | -18.14554 | 36107 ft | 417 kts | 219° |
| 2026-04-30 20:19 | 24.19353 | -18.17878 | 36088 ft | 417 kts | 219° |
| 2026-04-30 20:20 | 24.14423 | -18.21233 | 36092 ft | 417 kts | 219° |
| 2026-04-30 20:20 | 24.09499 | -18.24585 | 36096 ft | 417 kts | 219° |
| 2026-04-30 20:21 | 24.04576 | -18.27935 | 36097 ft | 417 kts | 219° |
| 2026-04-30 20:21 | 23.99649 | -18.31284 | 36102 ft | 417 kts | 219° |
| 2026-04-30 20:22 | 23.94717 | -18.34633 | 36109 ft | 417 kts | 219° |
| 2026-04-30 20:22 | 23.90601 | -18.37420 | 36105 ft | 417 kts | 219° |
| 2026-04-30 20:23 | 23.85664 | -18.40748 | 36079 ft | 417 kts | 219° |
| 2026-04-30 20:23 | 23.80717 | -18.44097 | 36090 ft | 418 kts | 219° |
| 2026-04-30 20:24 | 23.75763 | -18.47446 | 36092 ft | 418 kts | 219° |
| 2026-04-30 20:24 | 23.70809 | -18.50794 | 36095 ft | 419 kts | 219° |
| 2026-04-30 20:25 | 23.63381 | -18.55801 | 36095 ft | 419 kts | 219° |
| 2026-04-30 20:26 | 23.55931 | -18.60819 | 36099 ft | 419 kts | 219° |
| 2026-04-30 20:26 | 23.48524 | -18.65795 | 36100 ft | 419 kts | 219° |
| 2026-04-30 20:27 | 23.38603 | -18.72460 | 36100 ft | 419 kts | 219° |
| 2026-04-30 20:28 | 23.28675 | -18.79113 | 36100 ft | 419 kts | 219° |
| 2026-04-30 20:30 | 23.16251 | -18.87425 | 36083 ft | 419 kts | 219° |
| 2026-04-30 20:31 | 23.01316 | -18.97396 | 36093 ft | 420 kts | 219° |
| 2026-04-30 20:32 | 22.88890 | -19.05677 | 36082 ft | 420 kts | 219° |
| 2026-04-30 20:33 | 22.81387 | -19.10646 | 36085 ft | 421 kts | 219° |
| 2026-04-30 20:34 | 22.73895 | -19.15634 | 36095 ft | 421 kts | 219° |
| 2026-04-30 20:35 | 22.66394 | -19.20600 | 36093 ft | 421 kts | 219° |
| 2026-04-30 20:35 | 22.58901 | -19.25557 | 36094 ft | 421 kts | 219° |
| 2026-04-30 20:36 | 22.53937 | -19.28839 | 36064 ft | 421 kts | 219° |
| 2026-04-30 20:37 | 22.46433 | -19.33793 | 36080 ft | 421 kts | 219° |
| 2026-04-30 20:37 | 22.41433 | -19.37091 | 36085 ft | 421 kts | 219° |
| 2026-04-30 20:38 | 22.36415 | -19.40400 | 36091 ft | 422 kts | 219° |
| 2026-04-30 20:38 | 22.31415 | -19.43705 | 36090 ft | 421 kts | 219° |
| 2026-04-30 20:39 | 22.23897 | -19.48651 | 36095 ft | 421 kts | 218° |
| 2026-04-30 20:40 | 22.16406 | -19.53571 | 36078 ft | 421 kts | 218° |
| 2026-04-30 20:40 | 22.11403 | -19.56856 | 36080 ft | 421 kts | 218° |
| 2026-04-30 20:41 | 22.03896 | -19.61781 | 36083 ft | 421 kts | 218° |
| 2026-04-30 20:41 | 21.98873 | -19.65067 | 36089 ft | 421 kts | 218° |
| 2026-04-30 20:42 | 21.93860 | -19.68350 | 36091 ft | 421 kts | 218° |
| 2026-04-30 20:43 | 21.86341 | -19.73268 | 36073 ft | 421 kts | 218° |
| 2026-04-30 20:43 | 21.81334 | -19.76536 | 36076 ft | 422 kts | 218° |
| 2026-04-30 20:44 | 21.73829 | -19.81427 | 36088 ft | 422 kts | 218° |
| 2026-04-30 20:45 | 21.63790 | -19.87971 | 36093 ft | 421 kts | 218° |
| 2026-04-30 20:45 | 21.58778 | -19.91236 | 36093 ft | 421 kts | 218° |
| 2026-04-30 20:46 | 21.48730 | -19.97756 | 36073 ft | 422 kts | 218° |
| 2026-04-30 20:47 | 21.41194 | -20.02653 | 36078 ft | 422 kts | 218° |
| 2026-04-30 20:48 | 21.33683 | -20.07522 | 36081 ft | 422 kts | 218° |
| 2026-04-30 20:48 | 21.28661 | -20.10772 | 36083 ft | 422 kts | 218° |
| 2026-04-30 20:49 | 21.23636 | -20.14021 | 36077 ft | 422 kts | 218° |
| 2026-04-30 20:50 | 21.16082 | -20.18904 | 36065 ft | 422 kts | 218° |
| 2026-04-30 20:50 | 21.11040 | -20.22163 | 36070 ft | 423 kts | 218° |
| 2026-04-30 20:51 | 21.06005 | -20.25410 | 36070 ft | 423 kts | 218° |
| 2026-04-30 20:51 | 20.98440 | -20.30287 | 36080 ft | 423 kts | 218° |
| 2026-04-30 20:52 | 20.93403 | -20.33541 | 36081 ft | 423 kts | 218° |
| 2026-04-30 20:53 | 20.85834 | -20.38407 | 36062 ft | 423 kts | 218° |
| 2026-04-30 20:53 | 20.80818 | -20.41624 | 36070 ft | 423 kts | 218° |
| 2026-04-30 20:54 | 20.73242 | -20.46490 | 36071 ft | 423 kts | 218° |
| 2026-04-30 20:55 | 20.65665 | -20.51350 | 36076 ft | 423 kts | 218° |
| 2026-04-30 20:55 | 20.60612 | -20.54586 | 36079 ft | 423 kts | 218° |
| 2026-04-30 20:56 | 20.53031 | -20.59429 | 36081 ft | 423 kts | 218° |
| 2026-04-30 20:57 | 20.45490 | -20.64254 | 36065 ft | 423 kts | 217° |
| 2026-04-30 20:57 | 20.40443 | -20.67483 | 36070 ft | 423 kts | 217° |
| 2026-04-30 20:58 | 20.32855 | -20.72324 | 36080 ft | 423 kts | 217° |
| 2026-04-30 20:58 | 20.27801 | -20.75530 | 36078 ft | 423 kts | 217° |
| 2026-04-30 20:59 | 20.20208 | -20.80342 | 36077 ft | 423 kts | 217° |
| 2026-04-30 21:00 | 20.10126 | -20.86746 | 36079 ft | 423 kts | 217° |
| 2026-04-30 21:01 | 20.02536 | -20.91565 | 36080 ft | 423 kts | 217° |
| 2026-04-30 21:02 | 19.94948 | -20.96373 | 36076 ft | 423 kts | 217° |
| 2026-04-30 21:02 | 19.89887 | -20.99568 | 36076 ft | 423 kts | 217° |
| 2026-04-30 21:03 | 19.84828 | -21.02765 | 36073 ft | 423 kts | 217° |
| 2026-04-30 21:03 | 19.79759 | -21.05962 | 36063 ft | 423 kts | 217° |
| 2026-04-30 21:04 | 19.74692 | -21.09156 | 36066 ft | 423 kts | 217° |
| 2026-04-30 21:04 | 19.67133 | -21.13926 | 36068 ft | 423 kts | 217° |
| 2026-04-30 21:05 | 19.62071 | -21.17110 | 36075 ft | 423 kts | 217° |
| 2026-04-30 21:05 | 19.57006 | -21.20286 | 36073 ft | 423 kts | 217° |
| 2026-04-30 21:06 | 19.51934 | -21.23480 | 36073 ft | 423 kts | 217° |
| 2026-04-30 21:06 | 19.46878 | -21.26662 | 36058 ft | 423 kts | 217° |
| 2026-04-30 21:07 | 19.41813 | -21.29835 | 36066 ft | 423 kts | 217° |
| 2026-04-30 21:07 | 19.36740 | -21.33021 | 36068 ft | 423 kts | 217° |
| 2026-04-30 21:08 | 19.32535 | -21.35662 | 36069 ft | 423 kts | 217° |
| 2026-04-30 21:08 | 19.27475 | -21.38837 | 36068 ft | 423 kts | 217° |
| 2026-04-30 21:09 | 19.22406 | -21.42016 | 36069 ft | 423 kts | 217° |
| 2026-04-30 21:09 | 19.17337 | -21.45184 | 36070 ft | 423 kts | 217° |
| 2026-04-30 21:10 | 19.12271 | -21.48346 | 36060 ft | 423 kts | 216° |
| 2026-04-30 21:10 | 19.07206 | -21.51506 | 36066 ft | 423 kts | 216° |
| 2026-04-30 21:11 | 19.02138 | -21.54671 | 36064 ft | 423 kts | 216° |
| 2026-04-30 21:11 | 18.97071 | -21.57832 | 36064 ft | 423 kts | 216° |
| 2026-04-30 21:12 | 18.92013 | -21.60990 | 36066 ft | 423 kts | 216° |
| 2026-04-30 21:12 | 18.86978 | -21.64126 | 36083 ft | 422 kts | 216° |
| 2026-04-30 21:13 | 18.81912 | -21.67279 | 36069 ft | 422 kts | 216° |
| 2026-04-30 21:13 | 18.76841 | -21.70435 | 36066 ft | 423 kts | 216° |
| 2026-04-30 21:14 | 18.71782 | -21.73584 | 36057 ft | 423 kts | 216° |
| 2026-04-30 21:14 | 18.66704 | -21.76736 | 36064 ft | 423 kts | 216° |
| 2026-04-30 21:15 | 18.61643 | -21.79871 | 36070 ft | 423 kts | 216° |
| 2026-04-30 21:15 | 18.56565 | -21.83022 | 36072 ft | 423 kts | 216° |
| 2026-04-30 21:16 | 18.51490 | -21.86172 | 36061 ft | 422 kts | 216° |
| 2026-04-30 21:16 | 18.46415 | -21.89318 | 36045 ft | 422 kts | 216° |
| 2026-04-30 21:17 | 18.41383 | -21.92443 | 36053 ft | 423 kts | 216° |
| 2026-04-30 21:17 | 18.36311 | -21.95573 | 36057 ft | 423 kts | 216° |
| 2026-04-30 21:18 | 18.31229 | -21.98705 | 36054 ft | 423 kts | 216° |
| 2026-04-30 21:18 | 18.26155 | -22.01842 | 36053 ft | 423 kts | 216° |
| 2026-04-30 21:19 | 18.21072 | -22.04987 | 36025 ft | 424 kts | 216° |
| 2026-04-30 21:19 | 18.18525 | -22.06557 | 35782 ft | 424 kts | 216° |
| 2026-04-30 21:19 | 18.15969 | -22.08131 | 35534 ft | 425 kts | 216° |
| 2026-04-30 21:20 | 18.13414 | -22.09705 | 35300 ft | 426 kts | 216° |
| 2026-04-30 21:20 | 18.10851 | -22.11286 | 35052 ft | 428 kts | 216° |
| 2026-04-30 21:20 | 18.08279 | -22.12874 | 34820 ft | 430 kts | 216° |
| 2026-04-30 21:20 | 18.05694 | -22.14470 | 34578 ft | 431 kts | 216° |
| 2026-04-30 21:21 | 18.03104 | -22.16066 | 34362 ft | 433 kts | 216° |
| 2026-04-30 21:21 | 18.00500 | -22.17667 | 34132 ft | 434 kts | 215° |
| 2026-04-30 21:21 | 17.95250 | -22.20894 | 32673 ft | 441 kts | 215° |
| 2026-04-30 21:22 | 17.92621 | -22.22512 | 31700 ft | 446 kts | 215° |
| 2026-04-30 21:22 | 17.84528 | -22.27486 | 29327 ft | 447 kts | 215° |
| 2026-04-30 21:23 | 17.81849 | -22.29126 | 28654 ft | 442 kts | 214° |
| 2026-04-30 21:23 | 17.79201 | -22.30747 | 28007 ft | 439 kts | 214° |
| 2026-04-30 21:23 | 17.73968 | -22.33958 | 26728 ft | 433 kts | 214° |
| 2026-04-30 21:24 | 17.71368 | -22.35554 | 26085 ft | 431 kts | 214° |
| 2026-04-30 21:24 | 17.68782 | -22.37142 | 25457 ft | 429 kts | 214° |
| 2026-04-30 21:24 | 17.66224 | -22.38714 | 24836 ft | 427 kts | 213° |
| 2026-04-30 21:24 | 17.63668 | -22.40283 | 24227 ft | 425 kts | 213° |
| 2026-04-30 21:25 | 17.58586 | -22.43391 | 22992 ft | 419 kts | 213° |
| 2026-04-30 21:25 | 17.56084 | -22.44918 | 22452 ft | 414 kts | 213° |
| 2026-04-30 21:25 | 17.53639 | -22.46414 | 21952 ft | 409 kts | 212° |
| 2026-04-30 21:26 | 17.48782 | -22.49384 | 20963 ft | 400 kts | 212° |
| 2026-04-30 21:26 | 17.46384 | -22.50853 | 20475 ft | 396 kts | 212° |
| 2026-04-30 21:27 | 17.41666 | -22.53740 | 19486 ft | 390 kts | 212° |
| 2026-04-30 21:27 | 17.39328 | -22.55167 | 18985 ft | 388 kts | 212° |
| 2026-04-30 21:27 | 17.37000 | -22.56589 | 18476 ft | 387 kts | 212° |
| 2026-04-30 21:28 | 17.32372 | -22.59416 | 17372 ft | 383 kts | 212° |
| 2026-04-30 21:28 | 17.30072 | -22.60821 | 16849 ft | 381 kts | 212° |
| 2026-04-30 21:28 | 17.25518 | -22.63602 | 15804 ft | 377 kts | 211° |
| 2026-04-30 21:29 | 17.23245 | -22.64986 | 15286 ft | 376 kts | 211° |
| 2026-04-30 21:29 | 17.16512 | -22.69077 | 13688 ft | 374 kts | 211° |
| 2026-04-30 21:30 | 17.12055 | -22.71791 | 12586 ft | 368 kts | 211° |
| 2026-04-30 21:31 | 17.05518 | -22.75773 | 11015 ft | 356 kts | 210° |
| 2026-04-30 21:31 | 17.01339 | -22.78313 | 10501 ft | 333 kts | 210° |
| 2026-04-30 21:32 | 16.97492 | -22.80651 | 10274 ft | 307 kts | 210° |
| 2026-04-30 21:32 | 16.95689 | -22.81749 | 10155 ft | 295 kts | 210° |
| 2026-04-30 21:32 | 16.93941 | -22.82814 | 9988 ft | 286 kts | 210° |
| 2026-04-30 21:32 | 16.92229 | -22.83854 | 9630 ft | 284 kts | 210° |
| 2026-04-30 21:33 | 16.90516 | -22.84893 | 9247 ft | 283 kts | 210° |
| 2026-04-30 21:33 | 16.87129 | -22.86949 | 8454 ft | 281 kts | 210° |
| 2026-04-30 21:33 | 16.85439 | -22.87976 | 8053 ft | 279 kts | 210° |
| 2026-04-30 21:34 | 16.83763 | -22.88991 | 7664 ft | 278 kts | 210° |
| 2026-04-30 21:34 | 16.80436 | -22.91006 | 6883 ft | 275 kts | 210° |
| 2026-04-30 21:34 | 16.78777 | -22.92011 | 6476 ft | 275 kts | 210° |
| 2026-04-30 21:35 | 16.77170 | -22.92984 | 6281 ft | 266 kts | 211° |
| 2026-04-30 21:35 | 16.75603 | -22.93933 | 6161 ft | 254 kts | 211° |
| 2026-04-30 21:35 | 16.74110 | -22.94832 | 6033 ft | 242 kts | 209° |
| 2026-04-30 21:35 | 16.72561 | -22.95449 | 5797 ft | 237 kts | 198° |
| 2026-04-30 21:36 | 16.70983 | -22.95927 | 5472 ft | 235 kts | 198° |
| 2026-04-30 21:36 | 16.69411 | -22.96408 | 5149 ft | 236 kts | 198° |
| 2026-04-30 21:37 | 16.64684 | -22.97856 | 4436 ft | 236 kts | 198° |
| 2026-04-30 21:37 | 16.63095 | -22.98339 | 4186 ft | 236 kts | 198° |
| 2026-04-30 21:37 | 16.61514 | -22.98821 | 3945 ft | 237 kts | 197° |
| 2026-04-30 21:37 | 16.59932 | -22.99305 | 3706 ft | 237 kts | 197° |
| 2026-04-30 21:38 | 16.58357 | -22.99788 | 3472 ft | 237 kts | 197° |
| 2026-04-30 21:38 | 16.56769 | -23.00275 | 3350 ft | 237 kts | 197° |
| 2026-04-30 21:38 | 16.55191 | -23.00759 | 3232 ft | 237 kts | 196° |
| 2026-04-30 21:38 | 16.53622 | -23.01240 | 3112 ft | 238 kts | 196° |
| 2026-04-30 21:39 | 16.52016 | -23.01623 | 2990 ft | 237 kts | 181° |
| 2026-04-30 21:39 | 16.50398 | -23.01363 | 2869 ft | 235 kts | 156° |
| 2026-04-30 21:39 | 16.49045 | -23.00442 | 2747 ft | 233 kts | 131° |
| 2026-04-30 21:39 | 16.48184 | -22.99039 | 2632 ft | 229 kts | 107° |
| 2026-04-30 21:40 | 16.47942 | -22.97437 | 2504 ft | 223 kts | 84° |
| 2026-04-30 21:40 | 16.48312 | -22.95883 | 2376 ft | 222 kts | 63° |
| 2026-04-30 21:40 | 16.49224 | -22.94605 | 2259 ft | 221 kts | 40° |
| 2026-04-30 21:40 | 16.50526 | -22.93795 | 2121 ft | 218 kts | 19° |
| 2026-04-30 21:41 | 16.52028 | -22.93569 | 2002 ft | 219 kts | 359° |
| 2026-04-30 21:41 | 16.53532 | -22.93649 | 1876 ft | 212 kts | 359° |
| 2026-04-30 21:41 | 16.54989 | -22.93736 | 1755 ft | 206 kts | 356° |
| 2026-04-30 21:41 | 16.56362 | -22.94001 | 1634 ft | 201 kts | 346° |
| 2026-04-30 21:42 | 16.57671 | -22.94430 | 1538 ft | 193 kts | 351° |
| 2026-04-30 21:42 | 16.58979 | -22.94602 | 1513 ft | 187 kts | 358° |
| 2026-04-30 21:42 | 16.60200 | -22.94667 | 1517 ft | 164 kts | 360° |
| 2026-04-30 21:42 | 16.61272 | -22.94730 | 1500 ft | 148 kts | 359° |
| 2026-04-30 21:43 | 16.62277 | -22.94795 | 1502 ft | 143 kts | 359° |
| 2026-04-30 21:43 | 16.62933 | -22.94835 | 1504 ft | 142 kts | 359° |
| 2026-04-30 21:43 | 16.64240 | -22.94913 | 1533 ft | 137 kts | 359° |
| 2026-04-30 21:43 | 16.65167 | -22.94930 | 1516 ft | 134 kts | 4° |
| 2026-04-30 21:44 | 16.66097 | -22.94909 | 1451 ft | 134 kts | 4° |
| 2026-04-30 21:44 | 16.67020 | -22.94842 | 1269 ft | 132 kts | 7° |
| 2026-04-30 21:44 | 16.67941 | -22.94792 | 1093 ft | 132 kts | 3° |
| 2026-04-30 21:44 | 16.68860 | -22.94812 | 929 ft | 131 kts | 1° |
| 2026-04-30 21:45 | 16.69770 | -22.94898 | 723 ft | 133 kts | 357° |
| 2026-04-30 21:45 | 16.70707 | -22.94962 | 521 ft | 134 kts | 2° |
| 2026-04-30 21:45 | 16.71633 | -22.94905 | 356 ft | 133 kts | 7° |
| 2026-04-30 21:45 | 16.72563 | -22.94889 | 213 ft | 134 kts | 4° |
| 2026-04-30 21:46 | 16.73412 | -22.94891 | 185 ft | 102 kts | 0° |
| 2026-04-30 21:46 | 16.73950 | -22.94896 | 182 ft | 53 kts | 359° |
| 2026-04-30 21:46 | 16.74178 | -22.94899 | 179 ft | 12 kts | 358° |
| 2026-04-30 21:46 | 16.74227 | -22.94874 | 179 ft | 8 kts | 62° |
| 2026-04-30 21:47 | 16.74256 | -22.94819 | 180 ft | 9 kts | 62° |
| 2026-04-30 21:47 | 16.74288 | -22.94758 | 180 ft | 10 kts | 59° |
| 2026-04-30 21:47 | 16.74281 | -22.94699 | 182 ft | 9 kts | 168° |
| 2026-04-30 21:47 | 16.74231 | -22.94700 | 183 ft | 6 kts | 181° |
| 2026-04-30 21:48 | 16.74174 | -22.94700 | 184 ft | 15 kts | 180° |
| 2026-04-30 21:48 | 16.74068 | -22.94699 | 184 ft | 14 kts | 180° |
| 2026-04-30 21:48 | 16.73973 | -22.94698 | 183 ft | 13 kts | 179° |
| 2026-04-30 21:48 | 16.73886 | -22.94698 | 184 ft | 12 kts | 180° |
| 2026-04-30 21:49 | 16.73808 | -22.94698 | 201 ft | 10 kts | 180° |
| 2026-04-30 21:49 | 16.73741 | -22.94697 | 184 ft | 10 kts | 180° |
| 2026-04-30 21:49 | 16.73658 | -22.94696 | 189 ft | 12 kts | 174° |
| 2026-04-30 21:49 | 16.73614 | -22.94639 | 184 ft | 11 kts | 104° |
| 2026-04-30 21:50 | 16.73552 | -22.94598 | 189 ft | 11 kts | 179° |
| 2026-04-30 21:50 | 16.73478 | -22.94597 | 190 ft | 10 kts | 179° |
| 2026-04-30 21:50 | 16.73429 | -22.94575 | 192 ft | 7 kts | 105° |
| 2026-04-30 21:50 | 16.73432 | -22.94520 | 184 ft | 9 kts | 89° |
| 2026-04-30 21:51 | 16.73432 | -22.94502 | 184 ft | 0 kts | 89° |